Terminal Aerodrome Forecast
Issued by NWS

Home | Current Version | Previous Version | Text Only | Print | Product List | Glossary On
Versions: 1 2 3 4 5 6 7 8 9 10 11 12 13 14 15
000
FTUS41 KPHI 052325
TAFPNE
TAF
KPNE 052325Z 0600/0624 VRB03KT P6SM FEW040 BKN250
     FM060400 VRB03KT P6SM BKN150
     FM060800 VRB03KT P6SM SCT035 BKN080
     FM061300 12005KT P6SM BKN080
     FM061800 13007KT P6SM VCSH BKN050=

USA.gov is the U.S. government's official web portal to all federal, state and local government web resources and services.